sensor_id;sensor_type;location;lat;lon;timestamp;P1;durP1;ratioP1;P2;durP2;ratioP2
27313;SDS011;14800;48.174;9.798;2024-03-23T00:55:54;2.78;;;2.33;;
27313;SDS011;14800;48.174;9.798;2024-03-23T00:58:20;4.13;;;2.58;;
27313;SDS011;14800;48.174;9.798;2024-03-23T01:00:45;2.70;;;2.28;;
27313;SDS011;14800;48.174;9.798;2024-03-23T01:03:11;2.88;;;2.58;;
27313;SDS011;14800;48.174;9.798;2024-03-23T01:05:36;4.47;;;2.50;;
27313;SDS011;14800;48.174;9.798;2024-03-23T01:08:02;5.68;;;2.50;;
27313;SDS011;14800;48.174;9.798;2024-03-23T01:10:27;2.60;;;2.38;;
27313;SDS011;14800;48.174;9.798;2024-03-23T01:12:53;2.53;;;2.30;;
27313;SDS011;14800;48.174;9.798;2024-03-23T01:15:19;2.28;;;2.08;;
27313;SDS011;14800;48.174;9.798;2024-03-23T01:17:44;2.47;;;2.08;;
27313;SDS011;14800;48.174;9.798;2024-03-23T01:20:10;2.63;;;2.05;;
27313;SDS011;14800;48.174;9.798;2024-03-23T01:22:35;2.70;;;2.40;;
27313;SDS011;14800;48.174;9.798;2024-03-23T01:25:01;2.80;;;2.50;;
27313;SDS011;14800;48.174;9.798;2024-03-23T01:27:27;3.60;;;2.40;;
27313;SDS011;14800;48.174;9.798;2024-03-23T01:29:52;2.90;;;2.08;;
27313;SDS011;14800;48.174;9.798;2024-03-23T01:32:18;4.60;;;2.65;;
27313;SDS011;14800;48.174;9.798;2024-03-23T01:34:44;4.50;;;2.50;;
27313;SDS011;14800;48.174;9.798;2024-03-23T01:37:10;2.88;;;2.42;;
27313;SDS011;14800;48.174;9.798;2024-03-23T01:39:35;2.50;;;2.30;;
27313;SDS011;14800;48.174;9.798;2024-03-23T01:42:01;3.25;;;2.10;;
27313;SDS011;14800;48.174;9.798;2024-03-23T01:44:26;3.55;;;2.55;;
27313;SDS011;14800;48.174;9.798;2024-03-23T01:46:52;2.78;;;1.90;;
27313;SDS011;14800;48.174;9.798;2024-03-23T01:49:18;3.30;;;2.20;;
27313;SDS011;14800;48.174;9.798;2024-03-23T01:51:43;3.20;;;2.20;;
27313;SDS011;14800;48.174;9.798;2024-03-23T01:54:10;4.38;;;2.60;;
27313;SDS011;14800;48.174;9.798;2024-03-23T01:56:35;3.63;;;2.63;;
27313;SDS011;14800;48.174;9.798;2024-03-23T01:59:07;4.07;;;2.75;;
27313;SDS011;14800;48.174;9.798;2024-03-23T02:01:34;3.15;;;2.80;;
27313;SDS011;14800;48.174;9.798;2024-03-23T02:04:03;4.88;;;2.65;;
27313;SDS011;14800;48.174;9.798;2024-03-23T02:06:29;3.17;;;2.88;;
27313;SDS011;14800;48.174;9.798;2024-03-23T02:08:55;3.67;;;3.03;;
27313;SDS011;14800;48.174;9.798;2024-03-23T02:11:21;3.42;;;2.83;;
27313;SDS011;14800;48.174;9.798;2024-03-23T02:13:47;3.40;;;2.78;;
27313;SDS011;14800;48.174;9.798;2024-03-23T02:16:12;3.55;;;3.08;;
27313;SDS011;14800;48.174;9.798;2024-03-23T02:18:38;4.90;;;3.13;;
27313;SDS011;14800;48.174;9.798;2024-03-23T02:21:04;6.72;;;3.25;;
27313;SDS011;14800;48.174;9.798;2024-03-23T02:23:30;4.18;;;2.97;;
27313;SDS011;14800;48.174;9.798;2024-03-23T02:25:56;3.47;;;3.10;;
27313;SDS011;14800;48.174;9.798;2024-03-23T02:28:21;3.30;;;3.00;;
27313;SDS011;14800;48.174;9.798;2024-03-23T02:30:51;3.45;;;3.10;;
27313;SDS011;14800;48.174;9.798;2024-03-23T02:33:17;3.30;;;2.95;;
27313;SDS011;14800;48.174;9.798;2024-03-23T02:35:45;3.67;;;2.88;;
27313;SDS011;14800;48.174;9.798;2024-03-23T02:38:12;3.95;;;3.10;;
27313;SDS011;14800;48.174;9.798;2024-03-23T02:40:37;2.90;;;2.70;;
27313;SDS011;14800;48.174;9.798;2024-03-23T02:43:03;3.92;;;3.10;;
27313;SDS011;14800;48.174;9.798;2024-03-23T02:45:29;3.03;;;2.78;;
27313;SDS011;14800;48.174;9.798;2024-03-23T02:47:55;5.90;;;2.72;;
27313;SDS011;14800;48.174;9.798;2024-03-23T02:50:21;3.88;;;3.10;;
27313;SDS011;14800;48.174;9.798;2024-03-23T02:52:47;4.53;;;3.17;;
27313;SDS011;14800;48.174;9.798;2024-03-23T02:55:13;3.67;;;2.70;;
27313;SDS011;14800;48.174;9.798;2024-03-23T02:57:39;3.40;;;3.00;;
27313;SDS011;14800;48.174;9.798;2024-03-23T03:00:06;3.33;;;3.00;;
27313;SDS011;14800;48.174;9.798;2024-03-23T03:02:32;3.25;;;2.70;;
27313;SDS011;14800;48.174;9.798;2024-03-23T03:04:58;3.65;;;2.83;;
27313;SDS011;14800;48.174;9.798;2024-03-23T03:07:24;4.53;;;2.90;;
27313;SDS011;14800;48.174;9.798;2024-03-23T03:09:50;4.20;;;2.90;;
27313;SDS011;14800;48.174;9.798;2024-03-23T03:12:16;3.88;;;3.25;;
27313;SDS011;14800;48.174;9.798;2024-03-23T03:14:41;3.85;;;2.85;;
27313;SDS011;14800;48.174;9.798;2024-03-23T03:17:07;3.17;;;2.85;;
27313;SDS011;14800;48.174;9.798;2024-03-23T03:19:32;4.60;;;2.72;;
27313;SDS011;14800;48.174;9.798;2024-03-23T03:21:59;3.35;;;2.85;;
27313;SDS011;14800;48.174;9.798;2024-03-23T03:24:24;4.57;;;2.92;;
27313;SDS011;14800;48.174;9.798;2024-03-23T03:26:50;3.30;;;2.90;;
27313;SDS011;14800;48.174;9.798;2024-03-23T03:29:16;6.00;;;3.08;;
27313;SDS011;14800;48.174;9.798;2024-03-23T03:31:44;3.60;;;3.05;;
27313;SDS011;14800;48.174;9.798;2024-03-23T03:34:10;3.10;;;2.80;;
27313;SDS011;14800;48.174;9.798;2024-03-23T03:36:35;5.32;;;2.80;;
27313;SDS011;14800;48.174;9.798;2024-03-23T03:39:01;3.90;;;3.20;;
27313;SDS011;14800;48.174;9.798;2024-03-23T03:41:28;4.00;;;2.70;;
27313;SDS011;14800;48.174;9.798;2024-03-23T03:43:54;5.97;;;2.92;;
27313;SDS011;14800;48.174;9.798;2024-03-23T03:46:20;4.10;;;3.10;;
27313;SDS011;14800;48.174;9.798;2024-03-23T03:48:46;3.90;;;2.75;;
27313;SDS011;14800;48.174;9.798;2024-03-23T03:51:13;4.65;;;2.80;;
27313;SDS011;14800;48.174;9.798;2024-03-23T03:53:39;4.47;;;2.50;;
27313;SDS011;14800;48.174;9.798;2024-03-23T03:56:04;3.85;;;2.42;;
27313;SDS011;14800;48.174;9.798;2024-03-23T03:58:30;2.65;;;2.45;;
27313;SDS011;14800;48.174;9.798;2024-03-23T04:00:55;3.70;;;2.40;;
27313;SDS011;14800;48.174;9.798;2024-03-23T04:03:21;3.65;;;2.30;;
27313;SDS011;14800;48.174;9.798;2024-03-23T04:05:51;2.63;;;2.40;;
27313;SDS011;14800;48.174;9.798;2024-03-23T04:08:17;6.80;;;2.75;;
27313;SDS011;14800;48.174;9.798;2024-03-23T04:10:43;3.65;;;2.30;;
27313;SDS011;14800;48.174;9.798;2024-03-23T04:13:09;2.80;;;2.50;;
27313;SDS011;14800;48.174;9.798;2024-03-23T04:15:34;2.90;;;2.20;;
27313;SDS011;14800;48.174;9.798;2024-03-23T04:18:00;3.28;;;2.50;;
27313;SDS011;14800;48.174;9.798;2024-03-23T04:20:26;2.55;;;2.35;;
27313;SDS011;14800;48.174;9.798;2024-03-23T04:22:51;2.55;;;2.35;;
27313;SDS011;14800;48.174;9.798;2024-03-23T04:25:17;2.67;;;2.38;;
27313;SDS011;14800;48.174;9.798;2024-03-23T04:27:44;2.42;;;2.22;;
27313;SDS011;14800;48.174;9.798;2024-03-23T04:30:11;3.55;;;2.17;;
27313;SDS011;14800;48.174;9.798;2024-03-23T04:32:37;4.75;;;2.53;;
27313;SDS011;14800;48.174;9.798;2024-03-23T04:35:03;2.50;;;2.30;;
27313;SDS011;14800;48.174;9.798;2024-03-23T04:37:34;2.58;;;2.38;;
27313;SDS011;14800;48.174;9.798;2024-03-23T04:40:03;2.50;;;2.30;;
27313;SDS011;14800;48.174;9.798;2024-03-23T04:42:29;2.70;;;2.50;;
27313;SDS011;14800;48.174;9.798;2024-03-23T04:44:56;2.50;;;2.17;;
27313;SDS011;14800;48.174;9.798;2024-03-23T04:47:21;2.53;;;2.33;;
27313;SDS011;14800;48.174;9.798;2024-03-23T04:49:47;4.28;;;2.47;;
27313;SDS011;14800;48.174;9.798;2024-03-23T04:52:13;2.70;;;2.20;;
27313;SDS011;14800;48.174;9.798;2024-03-23T04:54:39;3.28;;;2.25;;
27313;SDS011;14800;48.174;9.798;2024-03-23T04:57:05;4.70;;;2.20;;
27313;SDS011;14800;48.174;9.798;2024-03-23T04:59:31;2.95;;;2.00;;
27313;SDS011;14800;48.174;9.798;2024-03-23T05:01:57;3.42;;;2.20;;
27313;SDS011;14800;48.174;9.798;2024-03-23T05:04:22;2.65;;;2.30;;
27313;SDS011;14800;48.174;9.798;2024-03-23T05:06:48;2.97;;;2.25;;
27313;SDS011;14800;48.174;9.798;2024-03-23T05:09:14;3.70;;;2.58;;
27313;SDS011;14800;48.174;9.798;2024-03-23T05:11:39;3.40;;;2.10;;
27313;SDS011;14800;48.174;9.798;2024-03-23T05:14:06;3.25;;;2.45;;
27313;SDS011;14800;48.174;9.798;2024-03-23T05:16:32;3.28;;;2.25;;
27313;SDS011;14800;48.174;9.798;2024-03-23T05:18:58;3.42;;;2.55;;
27313;SDS011;14800;48.174;9.798;2024-03-23T05:21:23;4.10;;;2.80;;
27313;SDS011;14800;48.174;9.798;2024-03-23T05:23:49;3.17;;;2.60;;
27313;SDS011;14800;48.174;9.798;2024-03-23T05:26:16;2.90;;;2.58;;
27313;SDS011;14800;48.174;9.798;2024-03-23T05:28:42;4.32;;;2.58;;
27313;SDS011;14800;48.174;9.798;2024-03-23T05:31:07;4.70;;;2.47;;
27313;SDS011;14800;48.174;9.798;2024-03-23T05:33:34;2.67;;;2.20;;
27313;SDS011;14800;48.174;9.798;2024-03-23T05:36:01;3.78;;;2.80;;
27313;SDS011;14800;48.174;9.798;2024-03-23T05:38:27;3.85;;;2.60;;
27313;SDS011;14800;48.174;9.798;2024-03-23T05:40:53;2.75;;;2.47;;
27313;SDS011;14800;48.174;9.798;2024-03-23T05:43:20;3.22;;;2.30;;
27313;SDS011;14800;48.174;9.798;2024-03-23T05:45:45;2.83;;;2.60;;
27313;SDS011;14800;48.174;9.798;2024-03-23T05:48:11;5.40;;;2.47;;
27313;SDS011;14800;48.174;9.798;2024-03-23T05:50:36;3.78;;;2.38;;
27313;SDS011;14800;48.174;9.798;2024-03-23T05:53:02;3.42;;;2.75;;
27313;SDS011;14800;48.174;9.798;2024-03-23T05:55:30;4.85;;;2.50;;
27313;SDS011;14800;48.174;9.798;2024-03-23T05:57:55;4.13;;;2.75;;
27313;SDS011;14800;48.174;9.798;2024-03-23T06:00:21;3.40;;;3.10;;
27313;SDS011;14800;48.174;9.798;2024-03-23T06:02:46;4.53;;;3.17;;
27313;SDS011;14800;48.174;9.798;2024-03-23T06:05:12;3.47;;;2.97;;
27313;SDS011;14800;48.174;9.798;2024-03-23T06:07:38;4.22;;;3.10;;
27313;SDS011;14800;48.174;9.798;2024-03-23T06:10:04;3.10;;;2.85;;
27313;SDS011;14800;48.174;9.798;2024-03-23T06:12:31;3.03;;;2.70;;
27313;SDS011;14800;48.174;9.798;2024-03-23T06:14:56;3.85;;;2.95;;
27313;SDS011;14800;48.174;9.798;2024-03-23T06:17:22;4.53;;;2.78;;
27313;SDS011;14800;48.174;9.798;2024-03-23T06:19:48;4.55;;;2.58;;
27313;SDS011;14800;48.174;9.798;2024-03-23T06:22:14;3.35;;;3.00;;
27313;SDS011;14800;48.174;9.798;2024-03-23T06:24:40;2.95;;;2.38;;
27313;SDS011;14800;48.174;9.798;2024-03-23T06:27:05;3.55;;;2.55;;
27313;SDS011;14800;48.174;9.798;2024-03-23T06:29:31;5.07;;;2.97;;
27313;SDS011;14800;48.174;9.798;2024-03-23T06:31:57;5.88;;;2.30;;
27313;SDS011;14800;48.174;9.798;2024-03-23T06:34:23;3.38;;;2.72;;
27313;SDS011;14800;48.174;9.798;2024-03-23T06:36:49;3.13;;;2.90;;
27313;SDS011;14800;48.174;9.798;2024-03-23T06:39:15;4.28;;;2.63;;
27313;SDS011;14800;48.174;9.798;2024-03-23T06:41:41;4.18;;;2.55;;
27313;SDS011;14800;48.174;9.798;2024-03-23T06:44:08;4.25;;;2.70;;
27313;SDS011;14800;48.174;9.798;2024-03-23T06:46:33;6.50;;;3.20;;
27313;SDS011;14800;48.174;9.798;2024-03-23T06:48:59;2.97;;;2.50;;
27313;SDS011;14800;48.174;9.798;2024-03-23T06:51:24;2.60;;;2.40;;
27313;SDS011;14800;48.174;9.798;2024-03-23T06:53:50;5.60;;;2.78;;
27313;SDS011;14800;48.174;9.798;2024-03-23T06:56:15;3.85;;;2.75;;
27313;SDS011;14800;48.174;9.798;2024-03-23T06:58:41;6.47;;;3.00;;
27313;SDS011;14800;48.174;9.798;2024-03-23T07:01:07;4.95;;;2.75;;
27313;SDS011;14800;48.174;9.798;2024-03-23T07:03:32;4.20;;;2.55;;
27313;SDS011;14800;48.174;9.798;2024-03-23T07:05:58;4.80;;;2.40;;
27313;SDS011;14800;48.174;9.798;2024-03-23T07:08:24;3.47;;;2.20;;
27313;SDS011;14800;48.174;9.798;2024-03-23T07:10:49;6.00;;;2.35;;
27313;SDS011;14800;48.174;9.798;2024-03-23T07:13:15;4.10;;;2.20;;
27313;SDS011;14800;48.174;9.798;2024-03-23T07:15:42;3.30;;;2.30;;
27313;SDS011;14800;48.174;9.798;2024-03-23T07:18:07;2.90;;;2.40;;
27313;SDS011;14800;48.174;9.798;2024-03-23T07:20:33;2.70;;;2.50;;
27313;SDS011;14800;48.174;9.798;2024-03-23T07:22:59;4.50;;;2.58;;
27313;SDS011;14800;48.174;9.798;2024-03-23T07:25:24;2.80;;;2.20;;
27313;SDS011;14800;48.174;9.798;2024-03-23T07:27:52;2.88;;;2.15;;
27313;SDS011;14800;48.174;9.798;2024-03-23T07:30:18;2.30;;;2.10;;
27313;SDS011;14800;48.174;9.798;2024-03-23T07:32:44;2.45;;;2.10;;
27313;SDS011;14800;48.174;9.798;2024-03-23T07:35:10;4.68;;;2.25;;
27313;SDS011;14800;48.174;9.798;2024-03-23T07:37:35;3.60;;;2.10;;
27313;SDS011;14800;48.174;9.798;2024-03-23T07:40:01;3.03;;;2.38;;
27313;SDS011;14800;48.174;9.798;2024-03-23T07:42:27;2.60;;;2.30;;
27313;SDS011;14800;48.174;9.798;2024-03-23T07:44:54;2.42;;;2.10;;
27313;SDS011;14800;48.174;9.798;2024-03-23T07:47:21;2.70;;;2.50;;
27313;SDS011;14800;48.174;9.798;2024-03-23T07:49:47;2.88;;;2.58;;
27313;SDS011;14800;48.174;9.798;2024-03-23T07:52:13;3.60;;;3.20;;
27313;SDS011;14800;48.174;9.798;2024-03-23T07:54:39;4.82;;;4.15;;
27313;SDS011;14800;48.174;9.798;2024-03-23T07:57:04;3.88;;;3.47;;
27313;SDS011;14800;48.174;9.798;2024-03-23T07:59:31;3.55;;;3.25;;
27313;SDS011;14800;48.174;9.798;2024-03-23T08:01:58;3.95;;;3.55;;
27313;SDS011;14800;48.174;9.798;2024-03-23T08:04:24;6.15;;;3.58;;
27313;SDS011;14800;48.174;9.798;2024-03-23T08:06:50;5.70;;;4.32;;
27313;SDS011;14800;48.174;9.798;2024-03-23T08:09:16;3.42;;;2.35;;
27313;SDS011;14800;48.174;9.798;2024-03-23T08:11:41;2.22;;;2.00;;
27313;SDS011;14800;48.174;9.798;2024-03-23T08:14:10;1.90;;;1.80;;
27313;SDS011;14800;48.174;9.798;2024-03-23T08:16:35;1.45;;;1.27;;
27313;SDS011;14800;48.174;9.798;2024-03-23T08:19:01;1.85;;;1.75;;
27313;SDS011;14800;48.174;9.798;2024-03-23T08:21:28;1.83;;;1.70;;
27313;SDS011;14800;48.174;9.798;2024-03-23T08:23:54;1.83;;;1.60;;
27313;SDS011;14800;48.174;9.798;2024-03-23T08:26:20;4.15;;;2.30;;
27313;SDS011;14800;48.174;9.798;2024-03-23T08:28:45;2.35;;;1.67;;
27313;SDS011;14800;48.174;9.798;2024-03-23T08:31:11;1.52;;;0.98;;
27313;SDS011;14800;48.174;9.798;2024-03-23T08:33:37;1.77;;;1.67;;
27313;SDS011;14800;48.174;9.798;2024-03-23T08:36:07;1.58;;;1.00;;
27313;SDS011;14800;48.174;9.798;2024-03-23T08:38:34;0.82;;;0.82;;
27313;SDS011;14800;48.174;9.798;2024-03-23T08:43:29;0.80;;;0.60;;
27313;SDS011;14800;48.174;9.798;2024-03-23T08:46:04;0.60;;;0.60;;
27313;SDS011;14800;48.174;9.798;2024-03-23T08:48:38;0.50;;;0.50;;
27313;SDS011;14800;48.174;9.798;2024-03-23T08:51:05;0.40;;;0.40;;
27313;SDS011;14800;48.174;9.798;2024-03-23T08:53:32;0.45;;;0.43;;
27313;SDS011;14800;48.174;9.798;2024-03-23T08:55:59;0.45;;;0.40;;
27313;SDS011;14800;48.174;9.798;2024-03-23T08:58:28;0.43;;;0.40;;
27313;SDS011;14800;48.174;9.798;2024-03-23T09:00:55;0.50;;;0.20;;
27313;SDS011;14800;48.174;9.798;2024-03-23T09:03:25;0.15;;;0.10;;
27313;SDS011;14800;48.174;9.798;2024-03-23T09:05:51;0.88;;;0.22;;
27313;SDS011;14800;48.174;9.798;2024-03-23T09:08:17;0.10;;;0.10;;
27313;SDS011;14800;48.174;9.798;2024-03-23T09:10:43;0.20;;;0.20;;
27313;SDS011;14800;48.174;9.798;2024-03-23T09:13:09;0.20;;;0.20;;
27313;SDS011;14800;48.174;9.798;2024-03-23T09:15:36;0.47;;;0.40;;
27313;SDS011;14800;48.174;9.798;2024-03-23T09:18:03;0.80;;;0.40;;
27313;SDS011;14800;48.174;9.798;2024-03-23T09:20:29;0.60;;;0.40;;
27313;SDS011;14800;48.174;9.798;2024-03-23T09:22:57;1.42;;;0.73;;
27313;SDS011;14800;48.174;9.798;2024-03-23T09:25:23;1.33;;;0.70;;
27313;SDS011;14800;48.174;9.798;2024-03-23T09:27:49;1.23;;;0.68;;
27313;SDS011;14800;48.174;9.798;2024-03-23T09:30:15;0.98;;;0.90;;
27313;SDS011;14800;48.174;9.798;2024-03-23T09:32:42;1.77;;;0.70;;
27313;SDS011;14800;48.174;9.798;2024-03-23T09:35:08;1.10;;;0.90;;
27313;SDS011;14800;48.174;9.798;2024-03-23T09:37:34;4.70;;;1.10;;
27313;SDS011;14800;48.174;9.798;2024-03-23T09:39:59;3.80;;;1.17;;
27313;SDS011;14800;48.174;9.798;2024-03-23T09:42:25;3.20;;;1.23;;
27313;SDS011;14800;48.174;9.798;2024-03-23T09:44:51;4.80;;;1.30;;
27313;SDS011;14800;48.174;9.798;2024-03-23T09:47:17;4.10;;;1.70;;
27313;SDS011;14800;48.174;9.798;2024-03-23T09:49:43;2.95;;;1.42;;
27313;SDS011;14800;48.174;9.798;2024-03-23T09:52:09;3.40;;;1.38;;
27313;SDS011;14800;48.174;9.798;2024-03-23T09:54:35;2.83;;;1.45;;
27313;SDS011;14800;48.174;9.798;2024-03-23T09:57:01;2.90;;;1.58;;
27313;SDS011;14800;48.174;9.798;2024-03-23T09:59:27;3.30;;;1.73;;
27313;SDS011;14800;48.174;9.798;2024-03-23T10:01:54;3.22;;;1.50;;
27313;SDS011;14800;48.174;9.798;2024-03-23T10:04:39;2.80;;;1.60;;
27313;SDS011;14800;48.174;9.798;2024-03-23T10:09:39;5.38;;;1.50;;
27313;SDS011;14800;48.174;9.798;2024-03-23T10:12:11;4.57;;;1.60;;
27313;SDS011;14800;48.174;9.798;2024-03-23T10:14:41;4.05;;;1.90;;
27313;SDS011;14800;48.174;9.798;2024-03-23T10:19:47;4.70;;;1.80;;
27313;SDS011;14800;48.174;9.798;2024-03-23T10:22:23;4.43;;;2.15;;
27313;SDS011;14800;48.174;9.798;2024-03-23T10:24:49;3.30;;;1.75;;
27313;SDS011;14800;48.174;9.798;2024-03-23T10:27:16;2.75;;;2.20;;
27313;SDS011;14800;48.174;9.798;2024-03-23T10:29:46;3.70;;;1.80;;
27313;SDS011;14800;48.174;9.798;2024-03-23T10:32:13;3.47;;;1.92;;
27313;SDS011;14800;48.174;9.798;2024-03-23T10:34:40;4.25;;;2.08;;
27313;SDS011;14800;48.174;9.798;2024-03-23T10:37:06;2.80;;;1.95;;
27313;SDS011;14800;48.174;9.798;2024-03-23T10:39:36;3.08;;;1.90;;
27313;SDS011;14800;48.174;9.798;2024-03-23T10:42:03;4.82;;;1.73;;
27313;SDS011;14800;48.174;9.798;2024-03-23T10:44:32;4.15;;;1.73;;
27313;SDS011;14800;48.174;9.798;2024-03-23T10:46:59;2.65;;;1.60;;
27313;SDS011;14800;48.174;9.798;2024-03-23T10:49:27;3.63;;;1.90;;
27313;SDS011;14800;48.174;9.798;2024-03-23T10:51:57;5.57;;;1.90;;
27313;SDS011;14800;48.174;9.798;2024-03-23T10:54:30;3.40;;;2.00;;
27313;SDS011;14800;48.174;9.798;2024-03-23T10:57:09;3.97;;;2.17;;
27313;SDS011;14800;48.174;9.798;2024-03-23T10:59:41;4.25;;;1.92;;
27313;SDS011;14800;48.174;9.798;2024-03-23T11:02:08;4.93;;;2.20;;
27313;SDS011;14800;48.174;9.798;2024-03-23T11:04:47;6.85;;;2.40;;
27313;SDS011;14800;48.174;9.798;2024-03-23T11:07:31;2.90;;;2.00;;
27313;SDS011;14800;48.174;9.798;2024-03-23T11:09:58;8.95;;;2.55;;
27313;SDS011;14800;48.174;9.798;2024-03-23T11:12:25;5.72;;;1.90;;
27313;SDS011;14800;48.174;9.798;2024-03-23T11:15:04;4.40;;;1.92;;
27313;SDS011;14800;48.174;9.798;2024-03-23T11:17:35;4.28;;;2.00;;
27313;SDS011;14800;48.174;9.798;2024-03-23T11:20:04;4.45;;;2.10;;
27313;SDS011;14800;48.174;9.798;2024-03-23T11:22:49;5.28;;;2.05;;
27313;SDS011;14800;48.174;9.798;2024-03-23T11:27:50;6.30;;;2.17;;
27313;SDS011;14800;48.174;9.798;2024-03-23T11:30:21;3.80;;;2.30;;
27313;SDS011;14800;48.174;9.798;2024-03-23T11:32:52;4.10;;;2.08;;
27313;SDS011;14800;48.174;9.798;2024-03-23T11:35:32;5.70;;;2.40;;
27313;SDS011;14800;48.174;9.798;2024-03-23T11:40:28;4.35;;;1.83;;
27313;SDS011;14800;48.174;9.798;2024-03-23T11:43:00;4.22;;;1.88;;
27313;SDS011;14800;48.174;9.798;2024-03-23T11:45:28;4.93;;;1.67;;
27313;SDS011;14800;48.174;9.798;2024-03-23T11:50:29;3.65;;;1.80;;
27313;SDS011;14800;48.174;9.798;2024-03-23T11:53:14;4.60;;;1.77;;
27313;SDS011;14800;48.174;9.798;2024-03-23T11:58:19;5.28;;;1.58;;
27313;SDS011;14800;48.174;9.798;2024-03-23T12:00:50;3.65;;;1.85;;
27313;SDS011;14800;48.174;9.798;2024-03-23T12:03:19;5.53;;;1.80;;
27313;SDS011;14800;48.174;9.798;2024-03-23T12:05:51;3.30;;;1.70;;
27313;SDS011;14800;48.174;9.798;2024-03-23T12:13:16;5.32;;;1.90;;
27313;SDS011;14800;48.174;9.798;2024-03-23T12:15:46;4.63;;;1.42;;
27313;SDS011;14800;48.174;9.798;2024-03-23T12:18:12;4.05;;;1.52;;
27313;SDS011;14800;48.174;9.798;2024-03-23T12:20:38;11.90;;;1.30;;
27313;SDS011;14800;48.174;9.798;2024-03-23T12:25:36;4.00;;;1.50;;
27313;SDS011;14800;48.174;9.798;2024-03-23T12:28:04;5.15;;;1.42;;
27313;SDS011;14800;48.174;9.798;2024-03-23T12:30:38;4.22;;;1.20;;
27313;SDS011;14800;48.174;9.798;2024-03-23T12:33:04;2.83;;;1.30;;
27313;SDS011;14800;48.174;9.798;2024-03-23T12:35:31;4.55;;;1.35;;
27313;SDS011;14800;48.174;9.798;2024-03-23T12:37:56;2.22;;;1.00;;
27313;SDS011;14800;48.174;9.798;2024-03-23T12:40:22;4.15;;;1.20;;
27313;SDS011;14800;48.174;9.798;2024-03-23T12:42:47;3.47;;;1.20;;
27313;SDS011;14800;48.174;9.798;2024-03-23T12:45:13;3.00;;;1.30;;
27313;SDS011;14800;48.174;9.798;2024-03-23T12:47:39;5.32;;;1.00;;
27313;SDS011;14800;48.174;9.798;2024-03-23T12:50:04;1.33;;;0.88;;
27313;SDS011;14800;48.174;9.798;2024-03-23T12:52:31;2.08;;;0.90;;
27313;SDS011;14800;48.174;9.798;2024-03-23T12:54:57;1.00;;;0.90;;
27313;SDS011;14800;48.174;9.798;2024-03-23T12:57:23;1.35;;;0.60;;
27313;SDS011;14800;48.174;9.798;2024-03-23T12:59:49;0.77;;;0.55;;
27313;SDS011;14800;48.174;9.798;2024-03-23T13:02:22;1.33;;;0.73;;
27313;SDS011;14800;48.174;9.798;2024-03-23T13:04:51;0.98;;;0.52;;
27313;SDS011;14800;48.174;9.798;2024-03-23T13:07:18;1.98;;;0.68;;
27313;SDS011;14800;48.174;9.798;2024-03-23T13:09:44;0.93;;;0.70;;
27313;SDS011;14800;48.174;9.798;2024-03-23T13:12:10;1.75;;;1.17;;
27313;SDS011;14800;48.174;9.798;2024-03-23T13:14:37;2.95;;;1.02;;
27313;SDS011;14800;48.174;9.798;2024-03-23T13:17:03;3.35;;;1.02;;
27313;SDS011;14800;48.174;9.798;2024-03-23T13:19:29;2.28;;;1.20;;
27313;SDS011;14800;48.174;9.798;2024-03-23T13:21:59;2.78;;;1.20;;
27313;SDS011;14800;48.174;9.798;2024-03-23T13:24:26;3.20;;;1.17;;
27313;SDS011;14800;48.174;9.798;2024-03-23T13:26:52;1.35;;;0.90;;
27313;SDS011;14800;48.174;9.798;2024-03-23T13:29:19;3.03;;;1.02;;
27313;SDS011;14800;48.174;9.798;2024-03-23T13:31:46;1.20;;;0.90;;
27313;SDS011;14800;48.174;9.798;2024-03-23T13:34:12;5.40;;;1.20;;
27313;SDS011;14800;48.174;9.798;2024-03-23T13:36:40;3.13;;;1.10;;
27313;SDS011;14800;48.174;9.798;2024-03-23T13:39:06;2.40;;;1.20;;
27313;SDS011;14800;48.174;9.798;2024-03-23T13:41:39;3.97;;;1.20;;
27313;SDS011;14800;48.174;9.798;2024-03-23T13:44:06;4.57;;;1.70;;
27313;SDS011;14800;48.174;9.798;2024-03-23T13:46:32;5.28;;;1.48;;
27313;SDS011;14800;48.174;9.798;2024-03-23T13:48:58;4.60;;;1.40;;
27313;SDS011;14800;48.174;9.798;2024-03-23T13:51:24;4.80;;;1.50;;
27313;SDS011;14800;48.174;9.798;2024-03-23T13:53:56;6.47;;;1.50;;
27313;SDS011;14800;48.174;9.798;2024-03-23T13:56:25;4.97;;;1.30;;
27313;SDS011;14800;48.174;9.798;2024-03-23T13:58:50;2.97;;;1.20;;
27313;SDS011;14800;48.174;9.798;2024-03-23T14:01:16;4.25;;;1.40;;
27313;SDS011;14800;48.174;9.798;2024-03-23T14:03:43;2.85;;;1.27;;
27313;SDS011;14800;48.174;9.798;2024-03-23T14:06:09;5.15;;;1.20;;
27313;SDS011;14800;48.174;9.798;2024-03-23T14:08:35;4.13;;;1.40;;
27313;SDS011;14800;48.174;9.798;2024-03-23T14:11:04;3.88;;;1.45;;
27313;SDS011;14800;48.174;9.798;2024-03-23T14:13:30;2.58;;;1.10;;
27313;SDS011;14800;48.174;9.798;2024-03-23T14:15:56;4.35;;;1.30;;
27313;SDS011;14800;48.174;9.798;2024-03-23T14:18:22;6.68;;;1.50;;
27313;SDS011;14800;48.174;9.798;2024-03-23T14:20:48;5.57;;;1.25;;
27313;SDS011;14800;48.174;9.798;2024-03-23T14:23:15;4.75;;;1.30;;
27313;SDS011;14800;48.174;9.798;2024-03-23T14:25:40;4.13;;;1.45;;
27313;SDS011;14800;48.174;9.798;2024-03-23T14:28:06;4.50;;;1.27;;
27313;SDS011;14800;48.174;9.798;2024-03-23T14:30:38;3.17;;;1.20;;
27313;SDS011;14800;48.174;9.798;2024-03-23T14:33:04;3.17;;;1.20;;
27313;SDS011;14800;48.174;9.798;2024-03-23T14:35:29;5.00;;;1.30;;
27313;SDS011;14800;48.174;9.798;2024-03-23T14:37:56;4.40;;;1.58;;
27313;SDS011;14800;48.174;9.798;2024-03-23T14:40:21;3.60;;;1.50;;
27313;SDS011;14800;48.174;9.798;2024-03-23T14:42:47;5.32;;;1.20;;
27313;SDS011;14800;48.174;9.798;2024-03-23T14:45:12;3.78;;;1.08;;
27313;SDS011;14800;48.174;9.798;2024-03-23T14:47:40;5.75;;;2.00;;
27313;SDS011;14800;48.174;9.798;2024-03-23T14:50:07;7.22;;;2.20;;
27313;SDS011;14800;48.174;9.798;2024-03-23T14:52:33;3.83;;;1.45;;
27313;SDS011;14800;48.174;9.798;2024-03-23T14:54:59;4.60;;;1.50;;
27313;SDS011;14800;48.174;9.798;2024-03-23T14:57:24;4.22;;;1.88;;
27313;SDS011;14800;48.174;9.798;2024-03-23T14:59:50;8.43;;;2.80;;
27313;SDS011;14800;48.174;9.798;2024-03-23T15:02:17;10.20;;;4.28;;
27313;SDS011;14800;48.174;9.798;2024-03-23T15:04:42;12.10;;;4.90;;
27313;SDS011;14800;48.174;9.798;2024-03-23T15:07:08;9.52;;;4.13;;
27313;SDS011;14800;48.174;9.798;2024-03-23T15:09:33;9.10;;;3.70;;
27313;SDS011;14800;48.174;9.798;2024-03-23T15:11:59;4.45;;;2.22;;
27313;SDS011;14800;48.174;9.798;2024-03-23T15:14:25;4.43;;;1.75;;
27313;SDS011;14800;48.174;9.798;2024-03-23T15:16:50;3.67;;;1.23;;
27313;SDS011;14800;48.174;9.798;2024-03-23T15:19:17;2.72;;;1.45;;
27313;SDS011;14800;48.174;9.798;2024-03-23T15:21:43;1.95;;;0.70;;
27313;SDS011;14800;48.174;9.798;2024-03-23T15:24:09;3.97;;;1.50;;
27313;SDS011;14800;48.174;9.798;2024-03-23T15:26:38;2.47;;;0.75;;
27313;SDS011;14800;48.174;9.798;2024-03-23T15:29:03;5.57;;;1.70;;
27313;SDS011;14800;48.174;9.798;2024-03-23T15:31:41;3.78;;;2.15;;
27313;SDS011;14800;48.174;9.798;2024-03-23T15:34:07;2.92;;;1.10;;
27313;SDS011;14800;48.174;9.798;2024-03-23T15:36:35;2.38;;;1.27;;
27313;SDS011;14800;48.174;9.798;2024-03-23T15:39:03;5.82;;;1.00;;
27313;SDS011;14800;48.174;9.798;2024-03-23T15:41:29;3.00;;;1.60;;
27313;SDS011;14800;48.174;9.798;2024-03-23T15:43:56;2.65;;;0.70;;
27313;SDS011;14800;48.174;9.798;2024-03-23T15:46:21;3.05;;;0.80;;
27313;SDS011;14800;48.174;9.798;2024-03-23T15:48:47;2.72;;;0.70;;
27313;SDS011;14800;48.174;9.798;2024-03-23T15:51:14;1.48;;;0.70;;
27313;SDS011;14800;48.174;9.798;2024-03-23T15:53:39;2.22;;;0.50;;
27313;SDS011;14800;48.174;9.798;2024-03-23T15:56:05;2.25;;;0.70;;
27313;SDS011;14800;48.174;9.798;2024-03-23T15:58:31;3.80;;;1.50;;
27313;SDS011;14800;48.174;9.798;2024-03-23T16:01:03;3.28;;;1.42;;
27313;SDS011;14800;48.174;9.798;2024-03-23T16:03:30;4.78;;;1.33;;
27313;SDS011;14800;48.174;9.798;2024-03-23T16:05:58;1.58;;;0.70;;